createdAt,value
2018-11-06T00:00:32.526Z,61.10
2018-11-06T00:03:07.401Z,61.73
2018-11-06T00:05:36.945Z,62.10
2018-11-06T00:08:06.775Z,59.30
2018-11-06T00:10:36.278Z,55.57
2018-11-06T00:13:05.836Z,56.03
2018-11-06T00:15:35.354Z,53.00
2018-11-06T00:18:04.630Z,54.13
2018-11-06T00:20:35.412Z,51.50
2018-11-06T00:23:04.825Z,52.97
2018-11-06T00:25:34.961Z,51.50
2018-11-06T00:28:04.327Z,50.70
2018-11-06T00:30:33.675Z,48.87
2018-11-06T00:33:03.218Z,47.87
2018-11-06T00:35:32.650Z,50.37
2018-11-06T00:38:01.973Z,48.43
2018-11-06T00:40:31.316Z,49.00
2018-11-06T00:43:00.650Z,48.27
2018-11-06T00:45:29.958Z,49.87
2018-11-06T00:47:59.380Z,50.90
2018-11-06T00:50:28.649Z,49.37
2018-11-06T00:52:58.066Z,52.60
2018-11-06T00:55:27.420Z,51.00
2018-11-06T00:57:56.721Z,52.10
2018-11-06T01:00:26.007Z,54.40
2018-11-06T01:02:55.431Z,53.63
2018-11-06T01:05:24.836Z,53.60
2018-11-06T01:07:54.199Z,57.37
2018-11-06T01:10:23.828Z,57.10
2018-11-06T01:12:53.434Z,56.83
2018-11-06T01:15:23.237Z,59.90
2018-11-06T01:17:52.805Z,58.40
2018-11-06T01:20:22.389Z,61.40
2018-11-06T01:22:52.041Z,57.63
2018-11-06T01:25:21.647Z,58.27
2018-11-06T01:27:51.240Z,57.90
2018-11-06T01:30:21.191Z,60.23
2018-11-06T01:32:50.749Z,60.13
2018-11-06T01:35:20.047Z,56.30
2018-11-06T01:37:49.350Z,57.97
2018-11-06T01:40:19.241Z,55.87
2018-11-06T01:42:48.862Z,58.90
2018-11-06T01:45:19.408Z,56.07
2018-11-06T01:47:48.780Z,57.20
2018-11-06T01:50:18.646Z,60.40
2018-11-06T01:52:48.565Z,56.47
2018-11-06T01:55:17.941Z,55.33
2018-11-06T01:57:47.227Z,55.07
2018-11-06T02:00:17.764Z,57.20
2018-11-06T02:02:47.171Z,57.93
2018-11-06T02:05:17.453Z,58.40
2018-11-06T02:07:47.881Z,57.10
2018-11-06T02:10:17.543Z,58.23
2018-11-06T02:12:47.334Z,56.50
2018-11-06T02:15:16.868Z,57.77
2018-11-06T02:17:46.515Z,56.23
2018-11-06T02:20:16.263Z,58.80
2018-11-06T02:22:46.501Z,57.50
2018-11-06T02:25:15.971Z,58.73
2018-11-06T02:27:45.300Z,59.93
2018-11-06T02:30:15.999Z,63.23
2018-11-06T02:32:46.069Z,62.80
2018-11-06T02:35:15.391Z,61.17
2018-11-06T02:37:44.868Z,62.73
2018-11-06T02:40:15.303Z,62.50
2018-11-06T02:42:44.705Z,63.33
2018-11-06T02:45:14.383Z,62.83
2018-11-06T02:47:44.125Z,65.87
2018-11-06T02:50:14.164Z,60.43
2018-11-06T02:52:43.948Z,63.93
2018-11-06T02:55:13.522Z,62.27
2018-11-06T02:57:43.265Z,66.77
2018-11-06T03:00:15.775Z,64.57
2018-11-06T03:02:45.787Z,70.10
2018-11-06T03:05:15.113Z,67.67
2018-11-06T03:07:44.459Z,65.60
2018-11-06T03:10:14.658Z,65.67
2018-11-06T03:12:44.479Z,71.57
2018-11-06T03:15:14.636Z,69.07
2018-11-06T03:17:44.342Z,66.37
2018-11-06T03:20:14.187Z,64.47
2018-11-06T03:22:44.200Z,68.70
2018-11-06T03:25:13.938Z,67.30
2018-11-06T03:27:43.294Z,69.80
2018-11-06T03:30:14.334Z,69.80
2018-11-06T03:32:43.746Z,72.53
2018-11-06T03:35:13.910Z,68.47
2018-11-06T03:37:43.247Z,68.23
2018-11-06T03:40:13.014Z,76.60
2018-11-06T03:42:42.932Z,70.20
2018-11-06T03:45:13.350Z,68.97
2018-11-06T03:47:42.668Z,65.90
2018-11-06T03:50:12.966Z,65.43
2018-11-06T03:52:42.319Z,61.60
2018-11-06T03:55:11.714Z,66.33
2018-11-06T03:57:41.095Z,60.60
2018-11-06T04:00:13.416Z,61.40
2018-11-06T04:02:43.310Z,59.50
2018-11-06T04:05:12.861Z,57.80
2018-11-06T04:07:42.564Z,57.90
2018-11-06T04:10:12.590Z,56.27
2018-11-06T04:12:42.249Z,58.47
2018-11-06T04:15:12.985Z,57.37
2018-11-06T04:17:43.386Z,54.67
2018-11-06T04:20:12.798Z,56.03
2018-11-06T04:22:42.672Z,54.57
2018-11-06T04:25:12.068Z,52.60
2018-11-06T04:27:41.683Z,53.90
2018-11-06T04:30:13.056Z,53.20
2018-11-06T04:32:43.007Z,51.00
2018-11-06T04:35:12.958Z,60.33
2018-11-06T04:37:42.562Z,52.83
2018-11-06T04:40:13.466Z,52.20
2018-11-06T04:42:42.920Z,50.30
2018-11-06T04:45:12.822Z,50.63
2018-11-06T04:47:42.495Z,50.40
2018-11-06T04:50:12.204Z,52.50
2018-11-06T04:52:41.951Z,50.60
2018-11-06T04:55:12.447Z,50.17
2018-11-06T04:57:42.034Z,51.00
2018-11-06T05:00:13.128Z,48.83
2018-11-06T05:02:43.039Z,51.63
2018-11-06T05:05:12.750Z,51.10
2018-11-06T05:07:42.096Z,49.67
2018-11-06T05:10:14.726Z,49.50
2018-11-06T05:12:44.299Z,51.00
2018-11-06T05:15:14.802Z,47.97
2018-11-06T05:17:44.168Z,48.67
2018-11-06T05:20:18.655Z,49.27
2018-11-06T05:22:48.179Z,47.53
2018-11-06T05:25:17.546Z,47.10
2018-11-06T05:27:47.476Z,44.50
2018-11-06T05:30:16.727Z,47.87
2018-11-06T05:32:46.109Z,43.43
2018-11-06T05:35:15.430Z,46.70
2018-11-06T05:37:44.744Z,49.33
2018-11-06T05:40:54.582Z,45.40
2018-11-06T05:43:23.901Z,44.80
2018-11-06T05:45:53.766Z,43.00
2018-11-06T05:48:23.322Z,43.77
2018-11-06T05:50:52.619Z,42.93
2018-11-06T05:53:22.096Z,45.07
2018-11-06T05:55:51.360Z,41.87
2018-11-06T05:58:20.678Z,42.80
2018-11-06T06:00:50.020Z,44.70
2018-11-06T06:03:19.340Z,42.50
2018-11-06T06:05:48.652Z,44.37
2018-11-06T06:08:17.951Z,40.77
2018-11-06T06:10:47.511Z,43.50
2018-11-06T06:13:16.924Z,43.70
2018-11-06T06:15:46.290Z,42.57
2018-11-06T06:18:15.667Z,42.90
2018-11-06T06:20:45.063Z,43.50
2018-11-06T06:23:14.465Z,43.17
2018-11-06T06:25:43.833Z,42.00
2018-11-06T06:28:13.316Z,42.97
2018-11-06T06:30:42.708Z,43.70
2018-11-06T06:33:12.254Z,42.33
2018-11-06T06:35:41.639Z,41.20
2018-11-06T06:38:10.907Z,42.63
2018-11-06T06:40:40.283Z,42.03
2018-11-06T06:43:09.545Z,42.50
2018-11-06T06:45:38.943Z,43.90
2018-11-06T06:48:08.279Z,40.70
2018-11-06T06:50:37.688Z,41.20
2018-11-06T06:53:07.059Z,42.40
2018-11-06T06:55:36.670Z,40.40
2018-11-06T06:58:06.120Z,41.93
2018-11-06T07:00:35.637Z,41.70
2018-11-06T07:03:04.941Z,39.40
2018-11-06T07:05:34.429Z,37.30
2018-11-06T07:08:03.812Z,36.43
2018-11-06T07:10:33.241Z,35.30
2018-11-06T07:13:02.612Z,31.37
2018-11-06T07:15:32.027Z,33.10
2018-11-06T07:18:01.523Z,31.77
2018-11-06T07:20:30.826Z,31.00
2018-11-06T07:23:00.172Z,31.93
2018-11-06T07:25:29.526Z,30.10
2018-11-06T07:27:58.859Z,29.50
2018-11-06T07:30:28.152Z,29.20
2018-11-06T07:32:57.519Z,30.00
2018-11-06T07:35:26.967Z,30.20
2018-11-06T07:37:56.266Z,29.47
2018-11-06T07:40:25.675Z,29.90
2018-11-06T07:42:55.729Z,27.80
2018-11-06T07:45:25.188Z,27.53
2018-11-06T07:47:54.552Z,29.70
2018-11-06T07:50:23.953Z,28.77
2018-11-06T07:52:53.217Z,31.07
2018-11-06T07:55:22.566Z,27.33
2018-11-06T07:57:51.887Z,28.33
2018-11-06T08:00:24.691Z,28.73
2018-11-06T08:02:54.103Z,28.63
2018-11-06T08:05:23.434Z,27.27
2018-11-06T08:07:53.243Z,26.80
2018-11-06T08:10:22.666Z,26.90
2018-11-06T08:12:53.288Z,29.10
2018-11-06T08:15:22.875Z,27.27
2018-11-06T08:17:52.253Z,28.40
2018-11-06T08:20:21.953Z,27.13
2018-11-06T08:22:51.451Z,27.80
2018-11-06T08:25:20.772Z,27.40
2018-11-06T08:27:50.151Z,29.50
2018-11-06T08:30:19.525Z,26.53
2018-11-06T08:32:49.046Z,31.30
2018-11-06T08:35:18.760Z,27.90
2018-11-06T08:37:48.267Z,28.10
2018-11-06T08:40:18.334Z,29.57
2018-11-06T08:42:47.705Z,28.63
2018-11-06T08:45:17.952Z,27.63
2018-11-06T08:47:47.381Z,29.40
2018-11-06T08:50:18.154Z,28.03
2018-11-06T08:52:47.591Z,27.93
2018-11-06T08:55:17.481Z,27.67
2018-11-06T08:57:47.028Z,27.43
2018-11-06T09:00:17.679Z,28.17
2018-11-06T09:02:47.972Z,27.97
2018-11-06T09:05:17.913Z,29.00
2018-11-06T09:07:47.551Z,27.23
2018-11-06T09:10:17.319Z,27.80
2018-11-06T09:12:46.795Z,28.20
2018-11-06T09:15:17.033Z,27.00
2018-11-06T09:17:46.466Z,28.03
2018-11-06T09:20:16.757Z,27.20
2018-11-06T09:22:46.453Z,26.00
2018-11-06T09:25:17.460Z,26.97
2018-11-06T09:27:46.780Z,27.10
2018-11-06T09:30:17.662Z,27.10
2018-11-06T09:32:47.100Z,26.73
2018-11-06T09:35:16.761Z,27.83
2018-11-06T09:37:46.420Z,26.50
2018-11-06T09:40:17.150Z,27.10
2018-11-06T09:42:46.613Z,27.40
2018-11-06T09:45:16.216Z,25.50
2018-11-06T09:47:45.624Z,26.57
2018-11-06T09:50:16.880Z,26.17
2018-11-06T09:52:47.002Z,25.40
2018-11-06T09:55:17.113Z,25.90
2018-11-06T09:57:47.044Z,27.00
2018-11-06T10:00:17.933Z,27.27
2018-11-06T10:02:47.244Z,27.23
2018-11-06T10:05:16.948Z,27.60
2018-11-06T10:07:46.334Z,28.60
2018-11-06T10:10:17.035Z,28.13
2018-11-06T10:12:47.168Z,28.30
2018-11-06T10:15:17.968Z,28.70
2018-11-06T10:17:48.220Z,28.00
2018-11-06T10:20:18.562Z,29.27
2018-11-06T10:22:48.018Z,30.03
2018-11-06T10:25:17.386Z,32.10
2018-11-06T10:27:46.851Z,27.00
2018-11-06T10:30:17.613Z,27.10
2018-11-06T10:32:47.378Z,26.73
2018-11-06T10:35:16.702Z,26.40
2018-11-06T10:37:46.032Z,25.80
2018-11-06T10:40:18.021Z,26.40
2018-11-06T10:42:47.882Z,26.70
2018-11-06T10:45:18.564Z,24.73
2018-11-06T10:47:48.516Z,26.80
2018-11-06T10:50:18.679Z,26.17
2018-11-06T10:52:48.677Z,25.80
2018-11-06T10:55:18.027Z,24.23
2018-11-06T10:57:47.427Z,27.43
2018-11-06T11:00:21.812Z,25.87
2018-11-06T11:02:56.322Z,25.90
2018-11-06T11:05:27.602Z,25.70
2018-11-06T11:07:56.979Z,28.27
2018-11-06T11:10:26.458Z,26.67
2018-11-06T11:12:57.124Z,27.20
2018-11-06T11:15:28.159Z,26.33
2018-11-06T11:18:00.025Z,27.57
2018-11-06T11:20:30.446Z,26.67
2018-11-06T11:22:59.816Z,26.57
2018-11-06T11:25:29.391Z,28.30
2018-11-06T11:27:58.770Z,28.60
2018-11-06T11:30:28.289Z,28.30
2018-11-06T11:32:57.636Z,27.30
2018-11-06T11:35:26.963Z,27.83
2018-11-06T11:37:56.262Z,26.27
2018-11-06T11:40:25.590Z,27.33
2018-11-06T11:42:54.975Z,27.57
2018-11-06T11:45:24.315Z,27.20
2018-11-06T11:47:53.718Z,26.70
2018-11-06T11:50:23.037Z,26.53
2018-11-06T11:52:52.319Z,26.10
2018-11-06T11:55:21.720Z,26.63
2018-11-06T11:57:50.980Z,26.20
2018-11-06T12:00:21.166Z,25.03
2018-11-06T12:02:50.569Z,24.60
2018-11-06T12:05:20.764Z,23.87
2018-11-06T12:07:50.235Z,23.00
2018-11-06T12:10:19.882Z,21.53
2018-11-06T12:12:49.205Z,23.57
2018-11-06T12:15:18.854Z,23.07
2018-11-06T12:17:48.457Z,24.07
2018-11-06T12:20:18.636Z,23.97
2018-11-06T12:22:48.040Z,23.00
2018-11-06T12:25:17.696Z,22.90
2018-11-06T12:27:46.781Z,22.23
2018-11-06T12:30:17.303Z,23.90
2018-11-06T12:32:47.791Z,24.50
2018-11-06T12:35:17.192Z,24.10
2018-11-06T12:37:46.537Z,24.40
2018-11-06T12:40:16.244Z,23.83
2018-11-06T12:42:45.676Z,23.70
2018-11-06T12:45:16.442Z,23.10
2018-11-06T12:47:46.557Z,24.67
2018-11-06T12:50:16.471Z,24.37
2018-11-06T12:52:45.933Z,23.77
2018-11-06T12:55:16.417Z,22.43
2018-11-06T12:57:45.780Z,23.37
2018-11-06T13:00:16.869Z,24.87
2018-11-06T13:02:46.250Z,23.47
2018-11-06T13:05:15.590Z,23.17
2018-11-06T13:07:45.504Z,24.10
2018-11-06T13:10:15.453Z,22.30
2018-11-06T13:12:44.952Z,23.30
2018-11-06T13:15:15.640Z,24.27
2018-11-06T13:17:44.075Z,22.80
2018-11-06T13:20:14.523Z,23.57
2018-11-06T13:22:44.653Z,24.33
2018-11-06T13:25:13.966Z,25.00
2018-11-06T13:27:43.522Z,24.60
2018-11-06T13:30:17.737Z,21.87
2018-11-06T13:32:47.933Z,23.30
2018-11-06T13:35:17.290Z,22.77
2018-11-06T13:37:46.664Z,24.20
2018-11-06T13:40:16.748Z,23.70
2018-11-06T13:42:46.501Z,23.63
2018-11-06T13:45:17.526Z,24.37
2018-11-06T13:47:46.756Z,25.17
2018-11-06T13:50:16.084Z,24.60
2018-11-06T13:52:45.729Z,24.73
2018-11-06T13:55:15.886Z,24.23
2018-11-06T13:57:47.274Z,23.87
2018-11-06T14:00:18.370Z,25.23
2018-11-06T14:02:48.121Z,24.70
2018-11-06T14:05:17.569Z,25.00
2018-11-06T14:07:46.914Z,26.43
2018-11-06T14:10:17.457Z,26.70
2018-11-06T14:12:50.098Z,24.63
2018-11-06T14:15:19.416Z,25.97
2018-11-06T14:17:48.747Z,25.40
2018-11-06T14:20:18.047Z,26.30
2018-11-06T14:22:47.439Z,27.03
2018-11-06T14:25:16.751Z,27.20
2018-11-06T14:27:46.075Z,26.00
2018-11-06T14:30:18.932Z,25.90
2018-11-06T14:32:48.920Z,27.30
2018-11-06T14:35:19.024Z,28.30
2018-11-06T14:37:48.645Z,27.80
2018-11-06T14:40:18.234Z,27.90
2018-11-06T14:42:47.680Z,28.70
2018-11-06T14:45:18.221Z,26.60
2018-11-06T14:47:47.641Z,28.33
2018-11-06T14:50:17.001Z,27.43
2018-11-06T14:52:46.426Z,29.17
2018-11-06T14:55:16.368Z,29.30
2018-11-06T14:57:45.706Z,31.80
2018-11-06T15:00:17.925Z,33.50
2018-11-06T15:02:48.505Z,37.17
2018-11-06T15:05:18.681Z,35.47
2018-11-06T15:07:48.317Z,34.67
2018-11-06T15:10:17.824Z,37.20
2018-11-06T15:12:47.273Z,34.13
2018-11-06T15:15:17.040Z,34.10
2018-11-06T15:17:47.181Z,33.87
2018-11-06T15:20:18.888Z,34.53
2018-11-06T15:22:49.385Z,35.37
2018-11-06T15:25:19.404Z,34.90
2018-11-06T15:27:48.752Z,34.87
2018-11-06T15:30:18.856Z,33.60
2018-11-06T15:32:48.333Z,33.70
2018-11-06T15:35:19.221Z,33.40
2018-11-06T15:37:48.556Z,35.10
2018-11-06T15:40:19.182Z,36.23
2018-11-06T15:42:48.524Z,34.77
2018-11-06T15:45:18.952Z,36.17
2018-11-06T15:47:50.246Z,35.43
2018-11-06T15:50:20.607Z,36.90
2018-11-06T15:52:50.737Z,37.03
2018-11-06T15:55:20.101Z,38.30
2018-11-06T15:57:49.486Z,37.67
2018-11-06T16:00:21.287Z,36.53
2018-11-06T16:02:50.839Z,35.10
2018-11-06T16:05:20.204Z,37.90
2018-11-06T16:07:50.298Z,38.17
2018-11-06T16:10:21.295Z,36.30
2018-11-06T16:12:50.671Z,60.13
2018-11-06T16:15:20.747Z,37.60
2018-11-06T16:17:50.111Z,37.70
2018-11-06T16:20:20.522Z,38.50
2018-11-06T16:22:49.975Z,38.67
2018-11-06T16:25:19.865Z,39.00
2018-11-06T16:27:49.924Z,39.93
2018-11-06T16:30:20.915Z,40.67
2018-11-06T16:32:50.573Z,38.70
2018-11-06T16:35:21.280Z,39.00
2018-11-06T16:37:52.319Z,36.20
2018-11-06T16:40:21.665Z,38.87
2018-11-06T16:42:51.046Z,37.40
2018-11-06T16:45:22.222Z,36.10
2018-11-06T16:47:53.057Z,39.90
2018-11-06T16:50:22.754Z,40.97
2018-11-06T16:52:53.547Z,42.40
2018-11-06T16:55:22.955Z,39.23
2018-11-06T16:57:53.450Z,36.77
2018-11-06T17:00:24.554Z,40.43
2018-11-06T17:02:53.805Z,38.60
2018-11-06T17:05:23.654Z,37.23
2018-11-06T17:07:53.331Z,38.93
2018-11-06T17:10:22.842Z,38.50
2018-11-06T17:12:52.184Z,40.20
2018-11-06T17:15:22.599Z,39.47
2018-11-06T17:17:52.935Z,40.33
2018-11-06T17:20:24.726Z,39.93
2018-11-06T17:22:54.020Z,40.10
2018-11-06T17:25:23.976Z,39.40
2018-11-06T17:27:53.766Z,37.33
2018-11-06T17:30:23.121Z,40.43
2018-11-06T17:32:52.708Z,42.13
2018-11-06T17:35:22.255Z,39.90
2018-11-06T17:37:51.606Z,41.53
2018-11-06T17:40:21.706Z,42.13
2018-11-06T17:42:51.109Z,38.97
2018-11-06T17:45:21.889Z,46.80
2018-11-06T17:47:51.254Z,42.77
2018-11-06T17:50:21.093Z,46.70
2018-11-06T17:52:50.411Z,42.73
2018-11-06T17:55:20.811Z,45.83
2018-11-06T17:57:50.119Z,43.40
2018-11-06T18:00:21.836Z,44.10
2018-11-06T18:02:51.272Z,43.33
2018-11-06T18:05:23.056Z,43.83
2018-11-06T18:07:52.644Z,43.07
2018-11-06T18:10:22.325Z,47.13
2018-11-06T18:12:52.663Z,45.87
2018-11-06T18:15:21.986Z,45.80
2018-11-06T18:17:51.526Z,50.10
2018-11-06T18:20:20.701Z,50.13
2018-11-06T18:22:50.016Z,46.60
2018-11-06T18:25:19.452Z,44.13
2018-11-06T18:27:48.741Z,46.50
2018-11-06T18:30:19.289Z,44.20
2018-11-06T18:32:48.672Z,44.60
2018-11-06T18:35:18.793Z,46.43
2018-11-06T18:37:48.189Z,47.93
2018-11-06T18:40:19.205Z,46.97
2018-11-06T18:42:50.485Z,42.80
2018-11-06T18:45:19.949Z,44.27
2018-11-06T18:47:49.291Z,44.37
2018-11-06T18:50:19.676Z,46.30
2018-11-06T18:52:50.139Z,46.07
2018-11-06T18:55:19.821Z,48.80
2018-11-06T18:57:50.806Z,45.70
2018-11-06T19:00:21.749Z,44.53
2018-11-06T19:02:53.105Z,45.57
2018-11-06T19:05:23.554Z,43.60
2018-11-06T19:07:52.950Z,46.20
2018-11-06T19:10:22.608Z,47.87
2018-11-06T19:12:52.010Z,47.47
2018-11-06T19:15:22.663Z,45.40
2018-11-06T19:17:52.267Z,44.50
2018-11-06T19:20:21.689Z,47.10
2018-11-06T19:22:51.055Z,46.37
2018-11-06T19:25:20.665Z,45.10
2018-11-06T19:27:50.082Z,48.30
2018-11-06T19:30:20.572Z,45.97
2018-11-06T19:32:50.556Z,46.57
2018-11-06T19:35:19.939Z,45.60
2018-11-06T19:37:49.931Z,47.37
2018-11-06T19:40:19.634Z,47.27
2018-11-06T19:42:49.537Z,47.23
2018-11-06T19:45:19.295Z,47.77
2018-11-06T19:47:48.900Z,45.67
2018-11-06T19:50:19.432Z,45.60
2018-11-06T19:52:48.922Z,46.53
2018-11-06T19:55:18.843Z,43.00
2018-11-06T19:57:48.252Z,43.13
2018-11-06T20:00:20.572Z,44.70
2018-11-06T20:02:51.015Z,43.80
2018-11-06T20:05:20.638Z,42.83
2018-11-06T20:07:50.908Z,45.20
2018-11-06T20:10:21.660Z,46.10
2018-11-06T20:12:52.273Z,50.37
2018-11-06T20:15:21.673Z,55.30
2018-11-06T20:17:51.177Z,57.57
2018-11-06T20:20:23.855Z,59.00
2018-11-06T20:22:53.409Z,58.87
2018-11-06T20:25:22.804Z,58.37
2018-11-06T20:27:52.240Z,53.43
2018-11-06T20:30:23.111Z,57.70
2018-11-06T20:32:52.961Z,54.03
2018-11-06T20:35:22.713Z,53.20
2018-11-06T20:37:52.512Z,52.80
2018-11-06T20:40:24.693Z,52.27
2018-11-06T20:42:54.331Z,50.30
2018-11-06T20:45:24.521Z,51.30
2018-11-06T20:47:54.239Z,48.40
2018-11-06T20:50:25.114Z,47.23
2018-11-06T20:52:54.766Z,46.27
2018-11-06T20:55:25.141Z,46.10
2018-11-06T20:57:55.282Z,46.60
2018-11-06T21:00:29.417Z,46.93
2018-11-06T21:03:00.323Z,45.73
2018-11-06T21:05:29.847Z,43.53
2018-11-06T21:07:59.959Z,45.43
2018-11-06T21:10:31.202Z,46.40
2018-11-06T21:13:00.784Z,45.07
2018-11-06T21:15:30.147Z,44.77
2018-11-06T21:17:59.661Z,47.00
2018-11-06T21:20:29.008Z,45.13
2018-11-06T21:22:58.367Z,47.00
2018-11-06T21:25:27.824Z,45.13
2018-11-06T21:27:57.454Z,45.30
2018-11-06T21:30:27.238Z,45.70
2018-11-06T21:32:57.785Z,45.83
2018-11-06T21:35:28.207Z,45.27
2018-11-06T21:37:58.529Z,42.40
2018-11-06T21:40:28.188Z,44.63
2018-11-06T21:42:57.790Z,44.80
2018-11-06T21:45:27.261Z,46.83
2018-11-06T21:47:56.988Z,42.33
2018-11-06T21:50:26.384Z,44.23
2018-11-06T21:52:56.055Z,44.90
2018-11-06T21:55:25.501Z,44.93
2018-11-06T21:57:54.911Z,45.10
2018-11-06T22:00:24.344Z,43.73
2018-11-06T22:02:53.894Z,44.30
2018-11-06T22:05:23.489Z,41.30
2018-11-06T22:07:52.899Z,42.50
2018-11-06T22:10:22.870Z,43.33
2018-11-06T22:12:52.324Z,45.73
2018-11-06T22:15:21.762Z,44.13
2018-11-06T22:17:51.140Z,44.67
2018-11-06T22:20:20.838Z,42.33
2018-11-06T22:22:50.609Z,43.10
2018-11-06T22:25:20.033Z,46.03
2018-11-06T22:27:49.344Z,44.07
2018-11-06T22:30:18.748Z,42.07
2018-11-06T22:32:48.696Z,43.57
2018-11-06T22:35:18.721Z,40.97
2018-11-06T22:37:48.332Z,43.03
2018-11-06T22:40:18.426Z,43.17
2018-11-06T22:42:47.878Z,43.70
2018-11-06T22:45:17.944Z,42.47
2018-11-06T22:47:47.391Z,43.97
2018-11-06T22:50:17.764Z,40.20
2018-11-06T22:52:47.999Z,40.60
2018-11-06T22:55:17.519Z,42.60
2018-11-06T22:57:46.890Z,41.63
2018-11-06T23:00:23.569Z,41.53
2018-11-06T23:02:52.900Z,42.77
2018-11-06T23:05:24.226Z,41.83
2018-11-06T23:07:58.767Z,41.43
2018-11-06T23:10:28.428Z,42.07
2018-11-06T23:12:57.770Z,42.80
2018-11-06T23:15:27.143Z,40.77
2018-11-06T23:17:56.466Z,42.50
2018-11-06T23:20:25.844Z,42.37
2018-11-06T23:22:55.187Z,40.23
2018-11-06T23:25:24.519Z,40.30
2018-11-06T23:27:53.832Z,40.57
2018-11-06T23:30:23.294Z,39.70
2018-11-06T23:32:53.024Z,41.87
2018-11-06T23:35:22.359Z,40.63
2018-11-06T23:37:51.956Z,41.17
2018-11-06T23:40:21.303Z,39.20
2018-11-06T23:42:50.654Z,41.20
2018-11-06T23:45:19.939Z,40.90
2018-11-06T23:47:49.242Z,40.73
2018-11-06T23:50:18.595Z,39.60
2018-11-06T23:52:47.879Z,37.10
2018-11-06T23:55:17.354Z,39.87
2018-11-06T23:57:46.659Z,37.60
